Time;durP1;ratioP1;P1;durP2;ratioP2;P2;SDS_P1;SDS_P2;PMS_P1;PMS_P2;Temp;Humidity;BMP_temperature;BMP_pressure;BME280_temperature;BME280_humidity;BME280_pressure;Samples;Min_cycle;Max_cycle;Signal;HPM_P1;HPM_P2
2021/01/14 00:00:18;;;;;;;;;22.75;19.75;;;;;16.52;44.43;97110.66;6026421;22;102394;-76
2021/01/14 00:02:44;;;;;;;;;16.50;16.00;;;;;16.51;45.28;97106.28;6031384;22;102278;-75
2021/01/14 00:05:12;;;;;;;;;19.00;16.00;;;;;16.48;44.81;97109.53;6012931;22;103848;-76
2021/01/14 00:07:39;;;;;;;;;24.50;19.50;;;;;16.50;45.20;97104.63;6002856;22;102159;-76
2021/01/14 00:10:06;;;;;;;;;23.75;19.00;;;;;16.48;45.10;97098.63;6029886;22;102239;-75
2021/01/14 00:12:33;;;;;;;;;17.00;15.00;;;;;16.47;45.19;97099.75;6022920;22;102510;-76
2021/01/14 00:15:00;;;;;;;;;17.00;15.00;;;;;16.45;45.12;97094.53;6022432;22;103306;-76
2021/01/14 00:17:27;;;;;;;;;20.25;18.25;;;;;16.44;44.63;97090.19;6026352;22;102414;-76
2021/01/14 00:19:54;;;;;;;;;19.00;18.50;;;;;16.44;45.33;97089.34;6018170;22;102213;-75
2021/01/14 00:22:20;;;;;;;;;18.25;17.25;;;;;16.43;45.07;97082.28;6033646;22;102531;-75
2021/01/14 00:24:47;;;;;;;;;14.50;11.25;;;;;16.43;45.15;97076.81;6025605;22;103678;-75
2021/01/14 00:27:14;;;;;;;;;20.00;18.25;;;;;16.42;45.16;97081.47;6022188;22;104550;-76
2021/01/14 00:29:40;;;;;;;;;20.25;16.00;;;;;16.43;45.16;97068.66;6027442;22;102311;-76
2021/01/14 00:32:07;;;;;;;;;16.00;14.25;;;;;16.41;45.19;97076.28;6030701;22;102300;-75
2021/01/14 00:34:34;;;;;;;;;16.50;15.50;;;;;16.41;45.32;97062.63;5994564;22;103313;-75
2021/01/14 00:39:45;;;;;;;;;18.25;17.25;;;;;16.39;45.02;97065.63;6026311;22;102169;-76
2021/01/14 00:42:18;;;;;;;;;23.50;17.25;;;;;16.39;44.73;97064.84;6029778;22;102603;-76
2021/01/14 00:44:46;;;;;;;;;17.50;14.00;;;;;16.39;44.92;97059.38;6024459;22;103504;-76
2021/01/14 00:47:12;;;;;;;;;18.00;17.75;;;;;16.38;45.02;97055.84;6027874;22;102293;-76
2021/01/14 00:49:39;;;;;;;;;16.75;15.75;;;;;16.37;45.40;97053.38;6025331;22;102333;-76
2021/01/14 00:52:06;;;;;;;;;16.25;13.25;;;;;16.37;45.21;97058.81;6027037;22;102424;-76
2021/01/14 00:54:32;;;;;;;;;12.00;10.00;;;;;16.35;44.78;97050.91;6024128;22;103356;-76
2021/01/14 00:56:59;;;;;;;;;14.75;14.25;;;;;16.37;45.19;97056.09;6030121;22;102151;-75
2021/01/14 00:59:26;;;;;;;;;18.25;15.50;;;;;16.35;44.93;97053.63;6027688;22;102168;-76
2021/01/14 01:01:52;;;;;;;;;15.25;13.50;;;;;16.34;44.62;97057.47;6026537;22;102453;-75
2021/01/14 01:04:19;;;;;;;;;16.00;15.25;;;;;16.35;44.69;97063.72;6020085;22;107931;-76
2021/01/14 01:06:46;;;;;;;;;15.00;13.00;;;;;16.33;44.78;97055.84;6029731;22;102280;-75
2021/01/14 01:09:12;;;;;;;;;13.50;12.00;;;;;16.34;44.55;97053.94;6026252;22;102346;-76
2021/01/14 01:11:39;;;;;;;;;16.50;14.50;;;;;16.33;45.02;97049.56;6030707;22;102341;-75
2021/01/14 01:14:06;;;;;;;;;16.75;15.75;;;;;16.32;45.03;97053.38;6027488;22;103155;-75
2021/01/14 01:16:32;;;;;;;;;17.75;14.75;;;;;16.32;45.10;97042.47;6026717;22;102717;-76
2021/01/14 01:18:59;;;;;;;;;16.00;15.00;;;;;16.31;45.02;97046.28;6029115;22;104169;-76
2021/01/14 01:21:26;;;;;;;;;15.00;13.50;;;;;16.31;44.97;97047.09;6032686;22;102297;-76
2021/01/14 01:23:52;;;;;;;;;14.75;14.00;;;;;16.30;45.05;97045.44;6024674;22;103493;-76
2021/01/14 01:26:19;;;;;;;;;15.00;13.00;;;;;16.30;44.70;97044.66;6027317;22;102313;-76
2021/01/14 01:28:46;;;;;;;;;15.00;14.00;;;;;16.30;44.81;97045.44;6026413;22;102271;-75
2021/01/14 01:31:13;;;;;;;;;16.75;14.00;;;;;16.30;45.05;97036.47;6029102;22;102179;-75
2021/01/14 01:33:40;;;;;;;;;11.75;10.50;;;;;16.29;45.18;97038.38;6028332;22;103383;-76
2021/01/14 01:36:07;;;;;;;;;14.25;13.75;;;;;16.29;44.70;97043.03;6028442;22;102423;-75
2021/01/14 01:38:35;;;;;;;;;16.25;14.00;;;;;16.30;44.53;97036.47;6028044;22;102435;-76
2021/01/14 01:41:02;;;;;;;;;12.75;12.25;;;;;16.30;44.61;97031.03;6028136;22;102418;-75
2021/01/14 01:43:29;;;;;;;;;16.00;13.25;;;;;16.30;44.68;97036.47;5979473;22;103055;-75
2021/01/14 01:45:56;;;;;;;;;13.50;12.25;;;;;16.29;45.32;97030.22;6029696;22;102391;-75
2021/01/14 01:48:23;;;;;;;;;13.00;12.50;;;;;16.30;45.15;97034.53;6030583;22;102363;-75
2021/01/14 01:50:54;;;;;;;;;14.00;13.00;;;;;16.29;44.70;97037.56;6027555;22;102102;-76
2021/01/14 01:53:20;;;;;;;;;13.75;12.00;;;;;16.29;45.23;97026.66;6030824;22;108847;-76
2021/01/14 01:55:47;;;;;;;;;14.00;13.00;;;;;16.29;44.86;97026.66;6026185;22;102219;-76
2021/01/14 01:58:14;;;;;;;;;11.75;10.75;;;;;16.28;45.44;97031.28;6022632;22;102465;-76
2021/01/14 02:00:41;;;;;;;;;12.25;12.00;;;;;16.28;44.84;97041.38;5977284;22;102547;-76
2021/01/14 02:03:08;;;;;;;;;12.00;11.00;;;;;16.26;45.09;97022.56;6026477;22;103360;-76
2021/01/14 02:05:34;;;;;;;;;18.75;14.25;;;;;16.26;44.55;97022.56;6007558;22;105318;-76
2021/01/14 02:08:20;;;;;;;;;13.00;11.00;;;;;16.28;45.16;97025.00;6024685;22;102336;-75
2021/01/14 02:11:03;;;;;;;;;12.25;11.50;;;;;16.27;45.01;97018.75;6026289;22;102271;-76
2021/01/14 02:13:34;;;;;;;;;7.50;7.50;;;;;16.28;44.96;97027.75;6020109;22;108213;-76
2021/01/14 02:16:03;;;;;;;;;13.25;11.00;;;;;16.26;44.99;97028.00;6024838;22;102166;-76
2021/01/14 02:18:30;;;;;;;;;16.00;14.00;;;;;16.26;45.17;97021.72;6019944;22;102203;-75
2021/01/14 02:20:59;;;;;;;;;15.00;13.00;;;;;16.26;44.98;97016.28;5998022;22;102336;-76
2021/01/14 02:23:35;;;;;;;;;13.00;11.25;;;;;16.26;45.04;97021.72;6018989;22;103711;-75
2021/01/14 02:26:14;;;;;;;;;11.75;10.75;;;;;16.25;44.55;97010.03;5999178;22;102357;-76
2021/01/14 02:28:43;;;;;;;;;12.00;12.00;;;;;16.25;45.05;97015.50;6027710;22;102365;-76
2021/01/14 02:31:11;;;;;;;;;11.25;11.00;;;;;16.25;45.23;97009.22;5996269;22;102493;-76
2021/01/14 02:33:38;;;;;;;;;12.75;11.25;;;;;16.25;45.03;97011.94;6023907;22;103411;-76
2021/01/14 02:36:06;;;;;;;;;12.00;11.00;;;;;16.25;45.29;97003.75;6028880;22;103600;-76
2021/01/14 02:38:33;;;;;;;;;12.25;12.25;;;;;16.24;45.16;97005.66;6026857;22;102189;-75
2021/01/14 02:41:00;;;;;;;;;11.50;10.50;;;;;16.25;45.07;97006.50;6021981;22;102374;-76
2021/01/14 02:43:27;;;;;;;;;13.25;11.25;;;;;16.25;44.85;97004.59;6028521;22;103027;-75
2021/01/14 02:45:54;;;;;;;;;10.25;9.50;;;;;16.24;45.09;97002.94;6026583;22;102206;-76
2021/01/14 02:48:29;;;;;;;;;13.50;12.50;;;;;16.25;44.69;97006.50;6017805;22;102999;-76
2021/01/14 02:50:57;;;;;;;;;9.25;9.00;;;;;16.25;44.67;97003.75;5996568;22;102410;-76
2021/01/14 02:53:24;;;;;;;;;13.00;11.00;;;;;16.26;45.36;97005.38;5994867;22;103185;-76
2021/01/14 02:55:51;;;;;;;;;10.25;9.25;;;;;16.22;44.88;97005.09;5998570;22;102270;-76
2021/01/14 02:58:17;;;;;;;;;11.00;10.00;;;;;16.24;44.94;97018.47;5999823;22;102349;-75
2021/01/14 03:00:44;;;;;;;;;11.75;11.00;;;;;16.24;45.16;97013.84;5993276;22;102296;-76
2021/01/14 03:03:11;;;;;;;;;9.75;9.00;;;;;16.25;44.99;97009.22;6016549;22;103423;-75
2021/01/14 03:05:37;;;;;;;;;8.25;8.00;;;;;16.24;44.84;97008.41;5995942;22;102478;-76
2021/01/14 03:08:04;;;;;;;;;11.75;11.00;;;;;16.24;45.00;97013.03;5995740;22;102351;-76
2021/01/14 03:10:31;;;;;;;;;12.00;10.75;;;;;16.24;45.47;97007.56;5999014;22;102157;-75
2021/01/14 03:12:58;;;;;;;;;10.50;9.75;;;;;16.24;44.97;97007.56;5994897;22;104030;-75
2021/01/14 03:15:24;;;;;;;;;12.00;10.00;;;;;16.24;45.55;97010.28;5992766;22;102156;-76
2021/01/14 03:17:52;;;;;;;;;11.00;10.50;;;;;16.23;45.00;97023.13;5993888;22;102618;-76
2021/01/14 03:20:18;;;;;;;;;11.25;10.25;;;;;16.24;45.47;97013.03;5999802;22;102217;-76
2021/01/14 03:22:45;;;;;;;;;11.00;11.00;;;;;16.23;45.32;97012.19;5999662;22;103383;-76
2021/01/14 03:25:12;;;;;;;;;12.00;10.75;;;;;16.23;45.02;97011.38;5998030;22;102270;-76
2021/01/14 03:27:39;;;;;;;;;14.50;10.50;;;;;16.23;45.09;97016.84;6001249;22;102214;-76
2021/01/14 03:30:07;;;;;;;;;12.25;9.00;;;;;16.23;45.21;97014.13;6001286;22;103786;-76
2021/01/14 03:32:34;;;;;;;;;10.75;8.75;;;;;16.23;44.75;97012.19;5995222;22;103468;-76
2021/01/14 03:35:00;;;;;;;;;11.25;11.00;;;;;16.23;44.81;97009.47;5997593;22;102344;-75
2021/01/14 03:37:27;;;;;;;;;11.00;10.00;;;;;16.23;45.29;97004.03;5997169;22;102067;-75
2021/01/14 03:39:54;;;;;;;;;15.50;10.50;;;;;16.24;45.14;97007.56;6020179;22;102420;-76
2021/01/14 03:42:21;;;;;;;;;10.25;10.25;;;;;16.25;45.18;97007.31;6028485;22;105402;-76
2021/01/14 03:44:49;;;;;;;;;10.00;8.00;;;;;16.24;45.02;97008.41;6000008;22;102412;-76
2021/01/14 03:47:15;;;;;;;;;11.50;10.00;;;;;16.24;44.88;97005.66;6002590;22;102388;-76
2021/01/14 03:49:42;;;;;;;;;10.50;9.50;;;;;16.25;45.05;97003.75;6028920;22;102221;-76
2021/01/14 03:52:12;;;;;;;;;10.25;10.25;;;;;16.25;44.61;97003.75;6032194;22;103152;-76
2021/01/14 03:54:38;;;;;;;;;9.25;8.00;;;;;16.25;44.73;97003.75;6020293;22;102341;-76
2021/01/14 03:57:05;;;;;;;;;7.25;7.25;;;;;16.26;44.77;97002.63;6028623;22;102302;-76
2021/01/14 03:59:32;;;;;;;;;11.25;11.25;;;;;16.25;44.89;97003.75;6030319;22;102144;-75
2021/01/14 04:02:06;;;;;;;;;11.00;9.00;;;;;16.27;44.96;97007.81;6021492;22;103282;-75
2021/01/14 04:04:39;;;;;;;;;10.25;9.00;;;;;16.25;45.23;97009.22;6025758;22;102295;-76
2021/01/14 04:07:13;;;;;;;;;12.00;11.00;;;;;16.26;44.61;97005.38;6023243;22;102397;-75
2021/01/14 04:09:41;;;;;;;;;12.75;11.25;;;;;16.26;44.98;97010.81;6027910;22;102448;-76
2021/01/14 04:12:08;;;;;;;;;12.00;9.50;;;;;16.25;45.39;97020.13;6024772;22;103180;-75
2021/01/14 04:14:35;;;;;;;;;11.75;11.75;;;;;16.25;44.93;97026.41;6026063;22;102252;-76
2021/01/14 04:17:01;;;;;;;;;12.50;11.00;;;;;16.23;45.46;97011.38;6017595;22;102164;-76
2021/01/14 04:19:28;;;;;;;;;10.25;9.25;;;;;16.24;45.06;97018.47;6022199;22;102394;-75
2021/01/14 04:21:55;;;;;;;;;11.50;10.00;;;;;16.23;45.26;97022.28;6001116;22;103243;-76
2021/01/14 04:24:22;;;;;;;;;11.50;10.25;;;;;16.22;45.01;97010.56;6028909;22;102084;-76
2021/01/14 04:26:49;;;;;;;;;13.00;11.00;;;;;16.21;45.35;97013.59;6022612;22;102327;-76
2021/01/14 04:29:15;;;;;;;;;10.50;9.25;;;;;16.20;44.87;97011.94;6028257;22;102429;-75
2021/01/14 04:31:42;;;;;;;;;6.00;5.00;;;;;16.17;45.15;97016.03;6025026;22;104374;-75
2021/01/14 04:34:09;;;;;;;;;12.75;10.25;;;;;16.15;44.92;97020.13;6026013;22;102385;-75
2021/01/14 04:36:35;;;;;;;;;8.50;7.75;;;;;16.13;45.04;97022.31;6031270;22;102279;-76
2021/01/14 04:39:02;;;;;;;;;12.00;11.25;;;;;16.12;45.10;97017.97;6028158;22;102462;-75
2021/01/14 04:41:44;;;;;;;;;11.75;10.25;;;;;16.08;45.03;97026.69;6022566;22;103245;-75
2021/01/14 04:44:10;;;;;;;;;10.50;10.00;;;;;16.06;45.08;97022.59;6000467;22;102466;-76
2021/01/14 04:46:37;;;;;;;;;10.00;9.50;;;;;16.05;44.91;97024.50;5998818;22;102391;-76
2021/01/14 04:49:03;;;;;;;;;12.75;10.00;;;;;16.02;44.88;97032.41;6001949;22;102238;-76
2021/01/14 04:51:30;;;;;;;;;8.75;8.00;;;;;15.99;45.59;97022.03;6022633;22;103332;-76
2021/01/14 04:54:01;;;;;;;;;10.50;9.00;;;;;15.96;44.88;97033.50;6027082;22;105746;-76
2021/01/14 04:56:32;;;;;;;;;13.25;10.75;;;;;15.93;44.85;97034.06;5977585;22;102209;-75
2021/01/14 04:59:01;;;;;;;;;11.25;9.25;;;;;15.90;44.75;97034.59;6025741;22;102319;-75
2021/01/14 05:01:28;;;;;;;;;10.50;9.00;;;;;15.87;45.11;97041.41;6027258;22;103582;-75
2021/01/14 05:03:55;;;;;;;;;11.00;9.75;;;;;15.86;45.18;97045.22;6024400;22;102242;-76
2021/01/14 05:06:25;;;;;;;;;10.75;9.50;;;;;15.80;44.74;97040.88;6027565;22;104489;-76
2021/01/14 05:09:12;;;;;;;;;10.00;8.75;;;;;15.78;45.26;97048.50;6003994;22;102442;-76
2021/01/14 05:11:42;;;;;;;;;8.00;8.00;;;;;15.76;44.86;97047.94;5913616;22;108650;-76
2021/01/14 05:14:09;;;;;;;;;11.25;10.50;;;;;15.72;44.87;97044.13;6025974;22;103094;-76
2021/01/14 05:16:35;;;;;;;;;11.25;10.75;;;;;15.69;45.29;97047.41;6024213;22;102326;-76
2021/01/14 05:19:02;;;;;;;;;10.50;9.50;;;;;15.67;45.53;97046.84;6025556;22;102408;-76
2021/01/14 05:21:32;;;;;;;;;10.00;9.25;;;;;15.64;45.40;97052.84;6024094;22;103434;-75
2021/01/14 05:24:09;;;;;;;;;9.50;9.00;;;;;15.60;45.22;97041.69;6028277;22;102295;-75
2021/01/14 05:26:36;;;;;;;;;8.25;8.00;;;;;15.57;45.49;97041.41;6024141;22;102228;-75
2021/01/14 05:29:12;;;;;;;;;9.25;8.00;;;;;15.55;45.44;97049.03;6027947;22;102623;-75
2021/01/14 05:31:39;;;;;;;;;9.00;8.75;;;;;15.52;45.38;97049.56;6029376;22;102875;-76
2021/01/14 05:34:06;;;;;;;;;12.00;10.25;;;;;15.49;45.53;97052.81;6024811;22;102184;-76
2021/01/14 05:36:55;;;;;;;;;10.50;8.25;;;;;15.47;45.38;97063.16;6028153;22;102476;-75
2021/01/14 05:39:22;;;;;;;;;10.75;10.75;;;;;15.45;45.24;97065.31;6031161;22;102379;-76
2021/01/14 05:41:50;;;;;;;;;9.75;8.25;;;;;15.41;45.13;97065.03;6029573;22;103587;-76
2021/01/14 05:44:17;;;;;;;;;11.00;9.00;;;;;15.39;46.28;97063.69;6027013;22;102100;-76
2021/01/14 05:46:44;;;;;;;;;8.50;8.50;;;;;15.36;45.68;97070.47;6031420;22;102410;-75
2021/01/14 05:49:11;;;;;;;;;9.50;8.50;;;;;15.34;45.32;97075.38;6004041;22;102429;-76
2021/01/14 05:51:38;;;;;;;;;9.00;7.75;;;;;15.32;45.54;97066.66;6025982;22;103588;-76
2021/01/14 05:54:09;;;;;;;;;12.75;9.00;;;;;15.29;45.43;97072.66;6027411;22;102193;-76
2021/01/14 05:56:49;;;;;;;;;10.75;9.25;;;;;15.29;45.82;97077.25;6023028;22;102432;-76
2021/01/14 05:59:19;;;;;;;;;10.25;8.25;;;;;15.26;45.72;97091.44;6026172;22;102384;-76
2021/01/14 06:01:57;;;;;;;;;8.25;8.25;;;;;15.23;45.52;97086.50;6028339;22;103665;-75
2021/01/14 06:04:25;;;;;;;;;9.00;9.00;;;;;15.19;45.34;97094.38;6020965;22;102648;-76
2021/01/14 06:06:53;;;;;;;;;9.00;7.00;;;;;15.15;45.96;97094.09;6026872;22;102132;-76
2021/01/14 06:09:20;;;;;;;;;10.75;9.00;;;;;15.13;45.70;97103.59;6024870;22;102294;-76
2021/01/14 06:11:48;;;;;;;;;8.50;8.00;;;;;15.10;46.00;97104.16;6017570;22;103312;-76
2021/01/14 06:14:31;;;;;;;;;9.00;8.00;;;;;15.08;46.40;97101.69;6024390;22;102363;-76
2021/01/14 06:16:59;;;;;;;;;11.75;8.00;;;;;15.05;45.73;97113.13;5993152;22;102329;-74
2021/01/14 06:19:26;;;;;;;;;8.00;7.00;;;;;15.03;45.79;97114.47;6004041;22;102272;-76
2021/01/14 06:21:56;;;;;;;;;10.00;9.00;;;;;15.00;46.26;97115.81;6028295;22;108474;-76
2021/01/14 06:24:26;;;;;;;;;9.50;7.00;;;;;14.97;45.84;97124.53;6012040;22;102279;-76
2021/01/14 06:26:57;;;;;;;;;7.75;7.75;;;;;14.96;45.95;97128.31;6017688;22;103761;-76
2021/01/14 06:29:27;;;;;;;;;8.50;8.25;;;;;14.93;45.77;97123.41;5996749;22;102263;-75
2021/01/14 06:32:07;;;;;;;;;9.50;7.75;;;;;14.92;45.75;97138.09;6019636;22;109546;-76
2021/01/14 06:34:33;;;;;;;;;10.25;9.00;;;;;14.90;45.94;97145.72;5940498;22;102325;-76
2021/01/14 06:37:18;;;;;;;;;8.75;8.00;;;;;14.88;45.88;97142.44;6021794;22;102209;-75
2021/01/14 06:39:45;;;;;;;;;9.00;8.25;;;;;14.84;46.27;97157.66;6021301;22;102212;-76
2021/01/14 06:42:31;;;;;;;;;8.75;7.00;;;;;14.81;45.95;97163.63;6029301;22;103514;-76
2021/01/14 06:44:58;;;;;;;;;9.00;7.00;;;;;14.80;46.09;97170.16;6030102;22;102250;-76
2021/01/14 06:47:30;;;;;;;;;10.00;7.00;;;;;14.78;46.22;97175.03;6026187;22;102318;-76
2021/01/14 06:50:20;;;;;;;;;7.50;6.50;;;;;14.76;46.21;97177.22;6031241;22;102279;-76
2021/01/14 06:52:50;;;;;;;;;8.25;7.00;;;;;14.73;46.05;97178.53;5949738;22;108606;-76
2021/01/14 06:55:17;;;;;;;;;7.50;7.25;;;;;14.73;45.86;97185.88;6024067;22;102049;-76
2021/01/14 06:58:04;;;;;;;;;9.00;8.25;;;;;14.69;46.39;97179.31;6028465;22;102294;-76
2021/01/14 07:00:31;;;;;;;;;8.50;8.00;;;;;14.69;46.06;97182.03;6027199;22;102441;-76
2021/01/14 07:03:13;;;;;;;;;7.50;5.50;;;;;14.66;46.54;97183.41;6028818;22;103573;-74
2021/01/14 07:05:51;;;;;;;;;8.75;8.00;;;;;14.63;46.50;97194.00;6110544;22;102441;-76
2021/01/14 07:08:30;;;;;;;;;8.50;8.00;;;;;14.62;46.31;97200.50;6029303;22;102355;-76
2021/01/14 07:10:57;;;;;;;;;9.00;8.50;;;;;14.60;46.10;97203.47;6032108;22;102314;-76
2021/01/14 07:13:23;;;;;;;;;8.00;6.75;;;;;14.58;46.74;97212.97;6031355;22;107920;-76
2021/01/14 07:15:50;;;;;;;;;8.75;7.50;;;;;14.56;46.43;97209.69;6029987;22;102505;-75
2021/01/14 07:18:17;;;;;;;;;6.75;4.75;;;;;14.54;46.12;97218.13;6029517;22;102469;-76
2021/01/14 07:20:43;;;;;;;;;7.00;7.00;;;;;14.53;46.01;97230.09;6030973;22;102317;-76
2021/01/14 07:23:10;;;;;;;;;9.75;7.75;;;;;14.51;45.89;97223.25;6026363;22;103590;-76
2021/01/14 07:25:37;;;;;;;;;8.50;6.00;;;;;14.49;46.30;97234.41;6029067;22;102187;-76
2021/01/14 07:28:03;;;;;;;;;7.75;6.75;;;;;14.48;46.87;97240.09;6032212;22;104553;-76
2021/01/14 07:30:30;;;;;;;;;5.50;5.50;;;;;14.46;46.82;97236.81;6004049;22;102283;-75
2021/01/14 07:33:06;;;;;;;;;8.25;6.75;;;;;14.45;46.35;97237.91;6004440;22;103322;-76
2021/01/14 07:35:35;;;;;;;;;8.75;6.25;;;;;14.43;46.66;97242.75;6028211;22;102322;-75
2021/01/14 07:38:02;;;;;;;;;8.00;7.00;;;;;14.42;46.20;97243.84;6004653;22;102243;-76
2021/01/14 07:40:30;;;;;;;;;9.50;8.00;;;;;14.39;46.38;97247.09;6030944;22;102418;-75
2021/01/14 07:42:57;;;;;;;;;9.75;7.00;;;;;14.38;46.50;97248.16;6034385;22;103273;-76
2021/01/14 07:45:24;;;;;;;;;7.25;6.75;;;;;14.36;46.31;97250.34;6030185;22;102612;-76
2021/01/14 07:47:51;;;;;;;;;7.00;7.00;;;;;14.35;46.31;97254.09;6028190;22;102354;-76
2021/01/14 07:50:19;;;;;;;;;7.00;6.50;;;;;14.34;46.48;97261.44;6030437;22;102440;-76
2021/01/14 07:52:46;;;;;;;;;8.50;6.75;;;;;14.34;46.99;97268.75;6029483;22;102725;-76
2021/01/14 07:55:26;;;;;;;;;7.75;7.00;;;;;14.32;46.46;97275.25;6027930;22;102355;-76
2021/01/14 07:58:22;;;;;;;;;6.00;5.50;;;;;14.32;46.71;97260.06;6023274;22;102243;-76
2021/01/14 08:01:01;;;;;;;;;5.25;5.00;;;;;14.29;46.30;97270.34;5927883;22;104084;-76
2021/01/14 08:03:29;;;;;;;;;7.25;7.00;;;;;14.28;46.36;97279.56;6019215;22;109219;-76
2021/01/14 08:05:56;;;;;;;;;7.75;7.00;;;;;14.26;46.69;97289.91;6027142;22;102183;-76
2021/01/14 08:08:29;;;;;;;;;7.25;6.75;;;;;14.26;46.32;97286.38;6026374;22;102189;-75
2021/01/14 08:11:19;;;;;;;;;7.75;7.00;;;;;14.24;46.71;97294.75;6029233;22;102289;-76
2021/01/14 08:14:04;;;;;;;;;5.75;5.50;;;;;14.24;46.99;97305.66;5938004;22;108899;-76
2021/01/14 08:16:36;;;;;;;;;7.00;6.25;;;;;14.22;46.52;97305.09;6027244;22;102303;-76
2021/01/14 08:19:28;;;;;;;;;7.00;6.50;;;;;14.20;46.73;97307.22;6028825;22;102216;-76
2021/01/14 08:22:01;;;;;;;;;6.25;6.25;;;;;14.20;46.67;97311.84;6031686;22;102128;-76
2021/01/14 08:24:47;;;;;;;;;5.50;5.25;;;;;14.19;46.88;97318.34;6028310;22;108693;-76
2021/01/14 08:27:34;;;;;;;;;6.00;5.75;;;;;14.18;47.08;97317.53;5938394;22;102442;-76
2021/01/14 08:30:20;;;;;;;;;6.25;6.00;;;;;14.16;47.40;97319.69;6030748;22;102062;-76
2021/01/14 08:32:58;;;;;;;;;6.00;6.00;;;;;14.14;47.18;97319.13;6031104;22;102122;-76
2021/01/14 08:35:32;;;;;;;;;6.00;5.75;;;;;14.12;46.38;97324.00;6024622;22;109648;-75
2021/01/14 08:38:03;;;;;;;;;6.25;5.00;;;;;14.13;46.61;97324.84;6029939;22;102312;-75
2021/01/14 08:40:35;;;;;;;;;7.25;6.75;;;;;14.13;47.48;97339.25;6032996;22;102203;-75
2021/01/14 08:43:09;;;;;;;;;8.00;7.50;;;;;14.13;47.37;97336.53;6030094;22;102661;-75
2021/01/14 08:45:54;;;;;;;;;6.50;6.25;;;;;14.11;47.13;97335.94;6029244;22;103286;-76
2021/01/14 08:48:30;;;;;;;;;6.00;5.00;;;;;14.10;46.34;97347.88;6029821;22;102368;-76
2021/01/14 08:50:58;;;;;;;;;5.00;5.00;;;;;14.09;46.93;97345.44;6029037;22;102313;-76
2021/01/14 08:53:32;;;;;;;;;7.25;5.25;;;;;14.09;47.38;97362.56;6029766;22;102293;-76
2021/01/14 08:56:09;;;;;;;;;6.75;5.75;;;;;14.07;46.52;97358.44;6019997;22;108055;-75
2021/01/14 08:58:46;;;;;;;;;6.75;5.50;;;;;14.07;47.27;97370.16;6032174;22;102199;-76
2021/01/14 09:01:26;;;;;;;;;6.50;6.00;;;;;14.05;46.77;97372.28;6000685;22;102252;-76
2021/01/14 09:03:54;;;;;;;;;5.00;5.00;;;;;14.04;47.03;97376.09;6027508;22;102365;-76
2021/01/14 09:06:40;;;;;;;;;6.25;5.50;;;;;14.02;46.48;97375.53;6030383;22;103931;-76
2021/01/14 09:09:09;;;;;;;;;5.25;4.75;;;;;14.01;46.69;97382.03;5963310;22;102234;-76
2021/01/14 09:11:36;;;;;;;;;6.00;6.00;;;;;14.02;46.68;97394.53;6030313;22;102327;-76
2021/01/14 09:14:10;;;;;;;;;5.75;4.75;;;;;14.00;46.45;97401.31;6029141;22;102359;-75
2021/01/14 09:16:38;;;;;;;;;7.25;4.00;;;;;13.98;46.41;97401.56;6007681;22;103181;-75
2021/01/14 09:19:21;;;;;;;;;6.00;5.25;;;;;13.97;46.84;97402.63;6028126;22;102242;-75
2021/01/14 09:21:48;;;;;;;;;6.25;4.75;;;;;13.96;46.54;97408.34;6002820;22;102468;-76
2021/01/14 09:24:15;;;;;;;;;7.00;6.75;;;;;13.95;46.93;97407.50;6035400;22;102274;-76
2021/01/14 09:26:43;;;;;;;;;7.75;6.25;;;;;13.94;46.56;97426.78;6028713;22;103308;-75
2021/01/14 09:29:13;;;;;;;;;8.00;6.50;;;;;13.93;46.40;97423.22;6031165;22;104824;-76
2021/01/14 09:31:40;;;;;;;;;7.00;6.00;;;;;13.93;47.34;97420.50;6032256;22;102151;-76
2021/01/14 09:34:07;;;;;;;;;7.25;5.75;;;;;13.90;47.36;97422.91;6028228;22;102131;-76
2021/01/14 09:36:34;;;;;;;;;6.00;5.00;;;;;13.90;47.42;97429.19;6029942;22;103401;-76
2021/01/14 09:39:03;;;;;;;;;6.00;5.00;;;;;13.89;46.43;97429.41;6030414;22;102307;-75
2021/01/14 09:41:33;;;;;;;;;6.00;6.00;;;;;13.87;47.08;97426.94;6028486;22;102325;-75
2021/01/14 09:44:04;;;;;;;;;6.00;5.75;;;;;13.86;46.45;97428.03;6030097;22;102390;-74
2021/01/14 09:46:34;;;;;;;;;6.00;6.00;;;;;13.85;46.53;97420.94;6029819;22;103682;-75
2021/01/14 09:49:04;;;;;;;;;7.00;6.00;;;;;13.85;46.49;97431.81;6025205;22;102989;-75
2021/01/14 09:51:31;;;;;;;;;5.50;5.50;;;;;13.84;47.48;97430.16;6002678;22;102161;-75
2021/01/14 09:53:58;;;;;;;;;5.25;5.00;;;;;13.84;46.63;97431.00;6006376;22;102406;-76
2021/01/14 09:56:47;;;;;;;;;6.00;5.75;;;;;13.86;46.88;97433.47;6000654;22;108453;-75
2021/01/14 09:59:35;;;;;;;;;6.50;6.00;;;;;13.85;47.43;97439.97;5907000;22;102349;-76
2021/01/14 10:02:20;;;;;;;;;5.75;5.25;;;;;13.83;47.48;97440.22;5997623;22;102203;-75
2021/01/14 10:04:51;;;;;;;;;5.00;4.25;;;;;13.84;47.19;97449.19;6002720;22;102631;-76
2021/01/14 10:07:21;;;;;;;;;5.25;5.00;;;;;13.82;47.27;97451.34;5998530;22;103456;-76
2021/01/14 10:09:51;;;;;;;;;6.75;5.00;;;;;13.80;47.47;97454.31;5999157;22;102223;-76
2021/01/14 10:12:18;;;;;;;;;5.50;4.50;;;;;13.80;47.00;97461.63;6026071;22;102213;-76
2021/01/14 10:14:44;;;;;;;;;5.00;4.50;;;;;13.78;47.06;97459.16;6005099;22;102253;-76
2021/01/14 10:17:15;;;;;;;;;7.00;4.75;;;;;13.76;47.19;97468.63;6001139;22;103595;-76
2021/01/14 10:19:47;;;;;;;;;5.25;4.50;;;;;13.76;47.15;97468.63;6001506;22;102373;-76
2021/01/14 10:22:14;;;;;;;;;5.00;4.50;;;;;13.75;46.53;97469.69;6005072;22;105516;-76
2021/01/14 10:24:41;;;;;;;;;5.50;4.00;;;;;13.74;46.96;97484.34;6002458;22;102446;-75
2021/01/14 10:27:18;;;;;;;;;5.00;5.00;;;;;13.74;47.57;97476.19;6000509;22;103385;-76
2021/01/14 10:29:45;;;;;;;;;7.00;5.00;;;;;13.72;47.42;97481.06;6001910;22;102479;-76
2021/01/14 10:32:16;;;;;;;;;7.00;6.00;;;;;13.72;47.15;97479.19;6002833;22;102177;-76
2021/01/14 10:35:01;;;;;;;;;4.00;4.00;;;;;13.71;47.36;97485.69;6001273;22;103449;-76
2021/01/14 10:37:31;;;;;;;;;5.75;5.00;;;;;13.71;46.73;97491.13;6000963;22;108008;-76
2021/01/14 10:39:59;;;;;;;;;6.00;5.00;;;;;13.71;46.78;97496.56;6002606;22;102209;-76
2021/01/14 10:42:33;;;;;;;;;5.75;4.25;;;;;13.69;47.02;97495.97;5996746;22;102363;-76
2021/01/14 10:45:09;;;;;;;;;6.00;5.25;;;;;13.69;47.47;97498.69;5999262;22;102289;-75
2021/01/14 10:47:37;;;;;;;;;7.00;4.00;;;;;13.70;46.72;97504.94;5999357;22;103555;-75
2021/01/14 10:50:20;;;;;;;;;5.50;5.00;;;;;13.68;47.50;97499.78;5996234;22;102299;-75
2021/01/14 10:52:58;;;;;;;;;4.25;4.00;;;;;13.68;47.25;97507.91;5998452;22;102358;-76
2021/01/14 10:55:26;;;;;;;;;4.50;3.75;;;;;13.68;47.12;97509.81;5995935;22;102355;-76
2021/01/14 10:58:04;;;;;;;;;6.25;5.75;;;;;13.66;46.67;97511.94;6000740;22;107994;-75
2021/01/14 11:00:38;;;;;;;;;6.25;5.75;;;;;13.66;46.38;97514.66;6016939;22;102433;-76
2021/01/14 11:03:12;;;;;;;;;6.00;4.75;;;;;13.64;47.38;97516.81;5993360;22;102386;-76
2021/01/14 11:05:39;;;;;;;;;7.25;6.00;;;;;13.63;46.50;97518.69;5990402;22;102297;-75
2021/01/14 11:08:10;;;;;;;;;5.00;5.00;;;;;13.62;47.13;97518.94;5995142;22;103887;-76
2021/01/14 11:10:37;;;;;;;;;6.75;6.00;;;;;13.60;47.48;97521.09;5998731;22;102184;-75
2021/01/14 11:13:06;;;;;;;;;5.50;5.00;;;;;13.61;46.56;97525.44;6024715;22;102160;-75
2021/01/14 11:15:32;;;;;;;;;4.25;3.25;;;;;13.60;46.99;97531.97;5996383;22;102439;-75
2021/01/14 11:18:00;;;;;;;;;5.00;4.75;;;;;13.59;46.83;97522.16;6024565;22;103460;-76
2021/01/14 11:20:27;;;;;;;;;4.00;4.00;;;;;13.59;47.40;97527.59;6000396;22;102189;-76
2021/01/14 11:22:54;;;;;;;;;5.00;5.00;;;;;13.59;46.80;97524.88;6002124;22;102462;-76
2021/01/14 11:25:20;;;;;;;;;4.75;4.00;;;;;13.58;46.93;97539.50;6003979;22;102380;-76
2021/01/14 11:27:47;;;;;;;;;6.50;5.25;;;;;13.58;46.73;97534.91;6001445;22;103197;-76
2021/01/14 11:30:14;;;;;;;;;6.00;5.00;;;;;13.57;47.41;97543.28;5999781;22;102073;-76
2021/01/14 11:32:44;;;;;;;;;6.00;5.00;;;;;13.56;47.43;97549.78;5998250;22;102296;-76
2021/01/14 11:35:11;;;;;;;;;6.00;5.25;;;;;13.55;46.47;97553.59;6003569;22;102324;-76